createdAt,value
2017-10-29T00:00:24.352Z,1005.15
2017-10-29T00:01:33.721Z,1005.11
2017-10-29T00:02:43.113Z,1004.92
2017-10-29T00:03:52.132Z,1004.95
2017-10-29T00:05:01.452Z,1005.01
2017-10-29T00:06:11.116Z,1005.03
2017-10-29T00:07:19.779Z,1004.86
2017-10-29T00:08:28.792Z,1004.83
2017-10-29T00:09:38.125Z,1004.78
2017-10-29T00:10:47.452Z,1004.73
2017-10-29T00:11:56.575Z,1004.69
2017-10-29T00:13:06.293Z,1004.65
2017-10-29T00:14:15.280Z,1004.66
2017-10-29T00:15:24.149Z,1004.55
2017-10-29T00:16:33.119Z,1004.56
2017-10-29T00:17:42.822Z,1004.6
2017-10-29T00:18:51.748Z,1004.61
2017-10-29T00:20:01.239Z,1004.49
2017-10-29T00:21:10.221Z,1004.42
2017-10-29T00:22:19.890Z,1004.49
2017-10-29T00:23:28.913Z,1004.48
2017-10-29T00:24:38.249Z,1004.32
2017-10-29T00:25:47.267Z,1004.4
2017-10-29T00:26:56.625Z,1004.4
2017-10-29T00:28:05.608Z,1004.33
2017-10-29T00:29:14.274Z,1004.32
2017-10-29T00:30:23.260Z,1004.33
2017-10-29T00:31:32.233Z,1004.31
2017-10-29T00:32:42.048Z,1004.43
2017-10-29T00:33:51.056Z,1004.23
2017-10-29T00:35:00.738Z,1004.32
2017-10-29T00:36:09.720Z,1004.24
2017-10-29T00:37:18.737Z,1004.21
2017-10-29T00:38:28.405Z,1004.27
2017-10-29T00:39:37.177Z,1004.16
2017-10-29T00:40:46.549Z,1004.14
2017-10-29T00:41:55.873Z,1004.11
2017-10-29T00:43:05.207Z,1004.12
2017-10-29T00:44:14.395Z,1004.08
2017-10-29T00:45:23.785Z,1004.15
2017-10-29T00:46:33.858Z,1004.14
2017-10-29T00:47:43.624Z,1004.17
2017-10-29T00:48:52.725Z,1004.1
2017-10-29T00:50:01.697Z,1004.08
2017-10-29T00:51:11.313Z,1004.06
2017-10-29T00:52:21.049Z,1004.18
2017-10-29T00:53:31.212Z,1004.11
2017-10-29T00:54:40.520Z,1004.1
2017-10-29T00:55:49.507Z,1004.21
2017-10-29T00:56:58.809Z,1004.19
2017-10-29T00:58:08.146Z,1004.16
2017-10-29T00:59:18.130Z,1004
2017-10-29T01:00:26.793Z,1004.13
2017-10-29T01:01:35.812Z,1004.04
2017-10-29T01:02:44.812Z,1003.93
2017-10-29T01:03:54.086Z,1004.07
2017-10-29T01:05:03.392Z,1004.05
2017-10-29T01:06:13.039Z,1004.03
2017-10-29T01:07:21.681Z,1003.96
2017-10-29T01:08:30.717Z,1004.02
2017-10-29T01:09:39.704Z,1003.87
2017-10-29T01:10:48.343Z,1003.93
2017-10-29T01:11:58.059Z,1003.84
2017-10-29T01:13:07.380Z,1003.91
2017-10-29T01:14:16.359Z,1003.76
2017-10-29T01:15:25.766Z,1003.86
2017-10-29T01:16:35.088Z,1003.9
2017-10-29T01:17:44.402Z,1003.84
2017-10-29T01:18:53.067Z,1003.81
2017-10-29T01:20:02.389Z,1003.84
2017-10-29T01:21:11.355Z,1003.83
2017-10-29T01:22:20.653Z,1003.78
2017-10-29T01:23:29.628Z,1003.81
2017-10-29T01:24:38.939Z,1003.81
2017-10-29T01:25:47.587Z,1003.73
2017-10-29T01:26:56.561Z,1003.89
2017-10-29T01:28:05.569Z,1003.7
2017-10-29T01:29:14.210Z,1003.74
2017-10-29T01:30:23.824Z,1003.69
2017-10-29T01:31:33.150Z,1003.71
2017-10-29T01:32:42.141Z,1003.6
2017-10-29T01:33:51.447Z,1003.51
2017-10-29T01:35:00.115Z,1003.57
2017-10-29T01:36:09.424Z,1003.56
2017-10-29T01:37:18.419Z,1003.43
2017-10-29T01:38:27.077Z,1003.49
2017-10-29T01:39:36.712Z,1003.46
2017-10-29T01:40:46.013Z,1003.43
2017-10-29T01:41:54.982Z,1003.44
2017-10-29T01:43:04.614Z,1003.37
2017-10-29T01:44:13.585Z,1003.31
2017-10-29T01:45:22.608Z,1003.33
2017-10-29T01:46:31.568Z,1003.24
2017-10-29T01:47:40.240Z,1003.33
2017-10-29T01:48:48.872Z,1003.26
2017-10-29T01:49:57.850Z,1003.19
2017-10-29T01:51:06.823Z,1003.25
2017-10-29T01:52:16.121Z,1003.13
2017-10-29T01:53:24.779Z,1003.27
2017-10-29T01:54:33.802Z,1003.27
2017-10-29T01:55:42.771Z,1003.21
2017-10-29T01:56:52.394Z,1003.13
2017-10-29T01:58:01.035Z,1003.23
2017-10-29T01:59:10.034Z,1003.28
2017-10-29T02:00:19.349Z,1003.11
2017-10-29T02:01:28.314Z,1003.15
2017-10-29T02:02:36.958Z,1003.01
2017-10-29T02:03:46.283Z,1003.21
2017-10-29T02:04:55.257Z,1003.08
2017-10-29T02:06:04.568Z,1003.03
2017-10-29T02:07:13.219Z,1003.11
2017-10-29T02:08:21.866Z,1003.02
2017-10-29T02:09:31.179Z,1002.93
2017-10-29T02:10:40.190Z,1003
2017-10-29T02:11:49.503Z,1002.96
2017-10-29T02:12:58.807Z,1002.89
2017-10-29T02:14:07.803Z,1002.87
2017-10-29T02:15:16.785Z,1002.8
2017-10-29T02:16:25.444Z,1002.86
2017-10-29T02:17:34.765Z,1002.9
2017-10-29T02:18:44.443Z,1002.88
2017-10-29T02:19:53.112Z,1002.78
2017-10-29T02:21:01.766Z,1002.88
2017-10-29T02:22:11.099Z,1002.83
2017-10-29T02:23:20.071Z,1002.86
2017-10-29T02:24:28.773Z,1002.71
2017-10-29T02:25:38.796Z,1002.54
2017-10-29T02:26:48.134Z,1002.63
2017-10-29T02:27:57.447Z,1002.53
2017-10-29T02:29:06.758Z,1002.51
2017-10-29T02:30:15.860Z,1002.4
2017-10-29T02:31:25.185Z,1002.4
2017-10-29T02:32:34.157Z,1002.41
2017-10-29T02:33:43.126Z,1002.44
2017-10-29T02:34:52.164Z,1002.38
2017-10-29T02:36:00.808Z,1002.41
2017-10-29T02:37:09.453Z,1002.46
2017-10-29T02:38:18.433Z,1002.38
2017-10-29T02:39:27.445Z,1002.38
2017-10-29T02:40:36.811Z,1002.45
2017-10-29T02:41:46.455Z,1002.35
2017-10-29T02:42:55.440Z,1002.31
2017-10-29T02:44:04.099Z,1002.39
2017-10-29T02:45:13.095Z,1002.43
2017-10-29T02:46:22.737Z,1002.43
2017-10-29T02:47:31.708Z,1002.37
2017-10-29T02:48:40.743Z,1002.34
2017-10-29T02:49:49.732Z,1002.44
2017-10-29T02:50:59.420Z,1002.29
2017-10-29T02:52:08.054Z,1002.34
2017-10-29T02:53:16.706Z,1002.41
2017-10-29T02:54:26.049Z,1002.35
2017-10-29T02:55:35.690Z,1002.24
2017-10-29T02:56:44.351Z,1002.21
2017-10-29T02:57:54.322Z,1002.34
2017-10-29T02:59:03.620Z,1002.2
2017-10-29T03:00:12.304Z,1002.2
2017-10-29T03:01:21.280Z,1002.18
2017-10-29T03:02:29.952Z,1002.23
2017-10-29T03:03:38.606Z,1002.26
2017-10-29T03:04:47.595Z,1002.17
2017-10-29T03:05:56.598Z,1002.22
2017-10-29T03:07:05.568Z,1002.26
2017-10-29T03:08:14.552Z,1002.29
2017-10-29T03:09:24.499Z,1002.24
2017-10-29T03:10:33.799Z,1002.38
2017-10-29T03:11:42.780Z,1002.39
2017-10-29T03:12:52.399Z,1002.43
2017-10-29T03:14:01.371Z,1002.26
2017-10-29T03:15:10.026Z,1002.31
2017-10-29T03:16:18.993Z,1002.33
2017-10-29T03:17:28.303Z,1002.3
2017-10-29T03:18:36.957Z,1002.36
2017-10-29T03:19:45.632Z,1002.2
2017-10-29T03:20:55.269Z,1002.2
2017-10-29T03:22:04.568Z,1002.18
2017-10-29T03:23:13.224Z,1002.12
2017-10-29T03:24:21.868Z,1002.17
2017-10-29T03:25:31.529Z,1002.17
2017-10-29T03:26:41.182Z,1002.1
2017-10-29T03:27:50.498Z,1002.06
2017-10-29T03:28:59.803Z,1002.19
2017-10-29T03:30:09.441Z,1002.07
2017-10-29T03:31:19.408Z,1002.26
2017-10-29T03:32:28.394Z,1002.21
2017-10-29T03:33:37.375Z,1002.24
2017-10-29T03:34:46.681Z,1002.22
2017-10-29T03:35:56.622Z,1002.26
2017-10-29T03:37:05.283Z,1002.24
2017-10-29T03:38:14.257Z,1002.3
2017-10-29T03:39:24.219Z,1002.34
2017-10-29T03:40:33.532Z,1002.23
2017-10-29T03:41:42.524Z,1002.36
2017-10-29T03:42:51.501Z,1002.48
2017-10-29T03:44:00.149Z,1002.49
2017-10-29T03:45:09.555Z,1002.48
2017-10-29T03:46:18.536Z,1002.56
2017-10-29T03:47:27.508Z,1002.59
2017-10-29T03:48:36.158Z,1002.63
2017-10-29T03:49:45.520Z,1002.57
2017-10-29T03:50:54.827Z,1002.76
2017-10-29T03:52:04.465Z,1002.61
2017-10-29T03:53:13.125Z,1002.62
2017-10-29T03:54:22.097Z,1002.66
2017-10-29T03:55:31.063Z,1002.64
2017-10-29T03:56:40.140Z,1002.7
2017-10-29T03:57:49.125Z,1002.71
2017-10-29T03:58:58.110Z,1002.77
2017-10-29T04:00:07.453Z,1002.67
2017-10-29T04:01:16.417Z,1002.64
2017-10-29T04:02:25.396Z,1002.85
2017-10-29T04:03:34.699Z,1002.71
2017-10-29T04:04:43.352Z,1002.81
2017-10-29T04:05:52.334Z,1002.83
2017-10-29T04:07:02.294Z,1002.77
2017-10-29T04:08:10.990Z,1002.76
2017-10-29T04:09:20.317Z,1002.62
2017-10-29T04:10:29.288Z,1002.59
2017-10-29T04:11:37.945Z,1002.63
2017-10-29T04:12:47.570Z,1002.76
2017-10-29T04:13:57.514Z,1002.75
2017-10-29T04:15:06.477Z,1002.74
2017-10-29T04:16:15.135Z,1002.76
2017-10-29T04:17:24.764Z,1002.73
2017-10-29T04:18:33.766Z,1002.71
2017-10-29T04:19:42.528Z,1002.72
2017-10-29T04:20:52.470Z,1002.7
2017-10-29T04:22:01.442Z,1002.77
2017-10-29T04:23:10.080Z,1002.73
2017-10-29T04:24:18.725Z,1002.77
2017-10-29T04:25:28.145Z,1002.8
2017-10-29T04:26:37.456Z,1002.78
2017-10-29T04:27:46.121Z,1002.76
2017-10-29T04:28:55.110Z,1002.62
2017-10-29T04:30:04.080Z,1002.74
2017-10-29T04:31:13.064Z,1002.67
2017-10-29T04:32:22.036Z,1002.72
2017-10-29T04:33:31.019Z,1002.67
2017-10-29T04:34:40.326Z,1002.76
2017-10-29T04:35:49.311Z,1002.67
2017-10-29T04:36:58.081Z,1002.72
2017-10-29T04:38:07.056Z,1002.72
2017-10-29T04:39:15.695Z,1002.68
2017-10-29T04:40:24.692Z,1002.61
2017-10-29T04:41:33.366Z,1002.71
2017-10-29T04:42:42.667Z,1002.76
2017-10-29T04:43:51.647Z,1002.79
2017-10-29T04:45:00.290Z,1002.8
2017-10-29T04:46:08.946Z,1002.82
2017-10-29T04:47:18.256Z,1002.79
2017-10-29T04:48:27.322Z,1002.91
2017-10-29T04:49:36.365Z,1002.98
2017-10-29T04:50:45.347Z,1002.8
2017-10-29T04:51:54.013Z,1002.77
2017-10-29T04:53:02.985Z,1002.95
2017-10-29T04:54:11.955Z,1002.86
2017-10-29T04:55:21.274Z,1002.87
2017-10-29T04:56:30.598Z,1002.93
2017-10-29T04:57:39.578Z,1002.94
2017-10-29T04:58:48.890Z,1003.02
2017-10-29T04:59:57.991Z,1003.06
2017-10-29T05:01:06.639Z,1003.02
2017-10-29T05:02:16.272Z,1003.15
2017-10-29T05:03:25.258Z,1003.21
2017-10-29T05:04:34.570Z,1003.09
2017-10-29T05:05:44.264Z,1003.19
2017-10-29T05:06:52.917Z,1003.26
2017-10-29T05:08:01.879Z,1003.26
2017-10-29T05:09:11.193Z,1003.2
2017-10-29T05:10:20.177Z,1003.27
2017-10-29T05:11:29.480Z,1003.22
2017-10-29T05:12:38.457Z,1003.17
2017-10-29T05:13:47.109Z,1003.18
2017-10-29T05:14:56.076Z,1003.28
2017-10-29T05:16:05.037Z,1003.32
2017-10-29T05:17:14.344Z,1003.4
2017-10-29T05:18:23.663Z,1003.36
2017-10-29T05:19:32.964Z,1003.45
2017-10-29T05:20:41.945Z,1003.57
2017-10-29T05:21:51.277Z,1003.71
2017-10-29T05:22:59.918Z,1003.59
2017-10-29T05:24:09.216Z,1003.7
2017-10-29T05:25:18.202Z,1003.65
2017-10-29T05:26:27.179Z,1003.69
2017-10-29T05:27:36.218Z,1003.74
2017-10-29T05:28:45.209Z,1003.76
2017-10-29T05:29:54.244Z,1003.69
2017-10-29T05:31:03.236Z,1003.81
2017-10-29T05:32:11.951Z,1003.78
2017-10-29T05:33:21.913Z,1003.84
2017-10-29T05:34:31.211Z,1003.75
2017-10-29T05:35:40.174Z,1003.77
2017-10-29T05:36:49.150Z,1003.95
2017-10-29T05:37:57.793Z,1003.84
2017-10-29T05:39:06.776Z,1003.92
2017-10-29T05:40:16.743Z,1003.85
2017-10-29T05:41:26.075Z,1003.86
2017-10-29T05:42:34.716Z,1003.83
2017-10-29T05:43:44.348Z,1003.9
2017-10-29T05:44:53.325Z,1003.87
2017-10-29T05:46:02.288Z,1003.82
2017-10-29T05:47:11.297Z,1003.89
2017-10-29T05:48:20.284Z,1003.93
2017-10-29T05:49:29.264Z,1003.95
2017-10-29T05:50:38.251Z,1003.99
2017-10-29T05:51:47.003Z,1003.97
2017-10-29T05:52:56.005Z,1004
2017-10-29T05:54:04.645Z,1003.92
2017-10-29T05:55:13.958Z,1004.07
2017-10-29T05:56:23.262Z,1003.97
2017-10-29T05:57:32.667Z,1004.06
2017-10-29T05:58:41.646Z,1004.07
2017-10-29T05:59:50.966Z,1004.18
2017-10-29T06:01:00.046Z,1004.13
2017-10-29T06:02:09.354Z,1004.05
2017-10-29T06:03:18.654Z,1004.06
2017-10-29T06:04:27.946Z,1004.15
2017-10-29T06:05:36.921Z,1004.07
2017-10-29T06:06:46.245Z,1004.23
2017-10-29T06:07:54.905Z,1004.29
2017-10-29T06:09:04.208Z,1004.35
2017-10-29T06:10:12.846Z,1004.37
2017-10-29T06:11:22.472Z,1004.46
2017-10-29T06:12:32.102Z,1004.46
2017-10-29T06:13:40.770Z,1004.52
2017-10-29T06:14:49.741Z,1004.49
2017-10-29T06:15:59.038Z,1004.51
2017-10-29T06:17:08.357Z,1004.59
2017-10-29T06:18:18.317Z,1004.62
2017-10-29T06:19:26.979Z,1004.71
2017-10-29T06:20:36.089Z,1004.73
2017-10-29T06:21:44.709Z,1004.84
2017-10-29T06:24:02.349Z,1004.82
2017-10-29T06:25:11.326Z,1004.94
2017-10-29T06:26:20.735Z,1004.89
2017-10-29T06:27:30.361Z,1004.93
2017-10-29T06:28:40.044Z,1005.11
2017-10-29T06:29:48.680Z,1005.06
2017-10-29T06:30:57.313Z,1005.12
2017-10-29T06:32:06.611Z,1005.17
2017-10-29T06:33:15.617Z,1005.2
2017-10-29T06:34:24.588Z,1005.21
2017-10-29T06:35:33.565Z,1005.27
2017-10-29T06:36:42.868Z,1005.35
2017-10-29T06:37:52.167Z,1005.45
2017-10-29T06:39:00.822Z,1005.38
2017-10-29T06:40:09.648Z,1005.34
2017-10-29T06:41:18.863Z,1005.45
2017-10-29T06:42:28.398Z,1005.43
2017-10-29T06:43:38.461Z,1005.4
2017-10-29T06:44:47.101Z,1005.46
2017-10-29T06:45:56.420Z,1005.49
2017-10-29T06:47:05.868Z,1005.52
2017-10-29T06:48:15.552Z,1005.56
2017-10-29T06:49:24.628Z,1005.53
2017-10-29T06:50:33.338Z,1005.64
2017-10-29T06:51:42.379Z,1005.71
2017-10-29T06:52:51.079Z,1005.73
2017-10-29T06:54:01.830Z,1005.77
2017-10-29T06:55:10.824Z,1005.84
2017-10-29T06:56:19.505Z,1005.9
2017-10-29T06:57:29.205Z,1005.95
2017-10-29T06:58:38.562Z,1005.93
2017-10-29T06:59:47.873Z,1005.91
2017-10-29T07:00:57.605Z,1006
2017-10-29T07:02:06.928Z,1006.07
2017-10-29T07:03:16.246Z,1006.11
2017-10-29T07:04:25.240Z,1006.1
2017-10-29T07:05:34.564Z,1006.16
2017-10-29T07:06:43.256Z,1006.18
2017-10-29T07:07:51.917Z,1006.3
2017-10-29T07:09:00.569Z,1006.35
2017-10-29T07:10:10.566Z,1006.43
2017-10-29T07:11:19.560Z,1006.44
2017-10-29T07:12:28.534Z,1006.44
2017-10-29T07:13:37.221Z,1006.48
2017-10-29T07:14:46.331Z,1006.52
2017-10-29T07:15:55.485Z,1006.56
2017-10-29T07:17:04.821Z,1006.51
2017-10-29T07:18:14.116Z,1006.49
2017-10-29T07:19:23.689Z,1006.68
2017-10-29T07:20:32.386Z,1006.74
2017-10-29T07:21:41.182Z,1006.75
2017-10-29T07:22:50.382Z,1006.8
2017-10-29T07:23:59.158Z,1006.84
2017-10-29T07:25:08.792Z,1006.83
2017-10-29T07:26:17.780Z,1006.9
2017-10-29T07:27:26.776Z,1006.89
2017-10-29T07:28:36.090Z,1006.89
2017-10-29T07:29:44.752Z,1006.94
2017-10-29T07:30:53.733Z,1006.95
2017-10-29T07:32:03.034Z,1007.13
2017-10-29T07:33:11.669Z,1007.11
2017-10-29T07:34:20.359Z,1007.08
2017-10-29T07:35:29.028Z,1007.09
2017-10-29T07:36:38.015Z,1007.19
2017-10-29T07:37:46.987Z,1007.1
2017-10-29T07:38:56.004Z,1007.02
2017-10-29T07:40:05.626Z,1007.09
2017-10-29T07:41:14.267Z,1007.25
2017-10-29T07:42:23.896Z,1007.21
2017-10-29T07:43:33.524Z,1007.1
2017-10-29T07:44:42.864Z,1007.3
2017-10-29T07:45:51.829Z,1007.25
2017-10-29T07:47:00.811Z,1007.12
2017-10-29T07:48:09.459Z,1007.34
2017-10-29T07:49:18.442Z,1007.29
2017-10-29T07:50:27.416Z,1007.2
2017-10-29T07:51:36.394Z,1007.17
2017-10-29T07:52:46.028Z,1007.26
2017-10-29T07:53:55.022Z,1007.39
2017-10-29T07:55:04.000Z,1007.43
2017-10-29T07:56:13.636Z,1007.35
2017-10-29T07:57:22.276Z,1007.47
2017-10-29T07:58:31.577Z,1007.47
2017-10-29T07:59:40.326Z,1007.5
2017-10-29T08:00:49.730Z,1007.58
2017-10-29T08:01:58.713Z,1007.41
2017-10-29T08:03:08.788Z,1007.52
2017-10-29T08:04:17.951Z,1007.59
2017-10-29T08:05:27.291Z,1007.55
2017-10-29T08:06:36.297Z,1007.59
2017-10-29T08:07:45.274Z,1007.67
2017-10-29T08:08:54.324Z,1007.66
2017-10-29T08:10:03.561Z,1007.68
2017-10-29T08:11:12.861Z,1007.76
2017-10-29T08:12:22.494Z,1007.78
2017-10-29T08:13:31.483Z,1007.8
2017-10-29T08:14:40.128Z,1007.81
2017-10-29T08:15:49.759Z,1007.96
2017-10-29T08:16:58.419Z,1007.93
2017-10-29T08:18:07.063Z,1007.82
2017-10-29T08:19:16.374Z,1008.02
2017-10-29T08:20:25.086Z,1008
2017-10-29T08:21:34.390Z,1007.97
2017-10-29T08:22:43.353Z,1007.96
2017-10-29T08:23:52.004Z,1007.98
2017-10-29T08:25:01.334Z,1007.98
2017-10-29T08:26:10.310Z,1008.07
2017-10-29T08:27:18.947Z,1008.04
2017-10-29T08:28:28.182Z,1008.06
2017-10-29T08:29:37.438Z,1008.11
2017-10-29T08:30:46.763Z,1008.11
2017-10-29T08:31:55.755Z,1008.14
2017-10-29T08:33:04.824Z,1008.04
2017-10-29T08:34:14.124Z,1008.11
2017-10-29T08:35:23.151Z,1008.16
2017-10-29T08:36:31.922Z,1008.23
2017-10-29T08:37:40.919Z,1008.21
2017-10-29T08:38:49.573Z,1008.2
2017-10-29T08:39:58.231Z,1008.18
2017-10-29T08:41:07.583Z,1008.21
2017-10-29T08:42:16.909Z,1008.3
2017-10-29T08:43:26.234Z,1008.15
2017-10-29T08:44:36.058Z,1008.27
2017-10-29T08:45:44.839Z,1008.29
2017-10-29T08:46:54.523Z,1008.32
2017-10-29T08:48:03.859Z,1008.3
2017-10-29T08:49:13.557Z,1008.32
2017-10-29T08:50:22.903Z,1008.4
2017-10-29T08:51:31.964Z,1008.36
2017-10-29T08:52:41.427Z,1008.33
2017-10-29T08:53:51.082Z,1008.48
2017-10-29T08:55:00.087Z,1008.51
2017-10-29T08:56:09.509Z,1008.53
2017-10-29T08:57:18.531Z,1008.58
2017-10-29T08:58:27.502Z,1008.5
2017-10-29T08:59:37.144Z,1008.56
2017-10-29T09:00:46.178Z,1008.6
2017-10-29T09:01:55.520Z,1008.63
2017-10-29T09:03:04.193Z,1008.64
2017-10-29T09:04:12.872Z,1008.69
2017-10-29T09:05:22.196Z,1008.74
2017-10-29T09:06:31.227Z,1008.74
2017-10-29T09:07:40.588Z,1008.71
2017-10-29T09:08:49.277Z,1008.77
2017-10-29T09:09:58.984Z,1008.73
2017-10-29T09:11:07.986Z,1008.76
2017-10-29T09:12:17.316Z,1008.78
2017-10-29T09:13:26.651Z,1008.76
2017-10-29T09:14:35.307Z,1008.8
2017-10-29T09:15:44.004Z,1008.82
2017-10-29T09:16:52.698Z,1008.87
2017-10-29T09:18:02.383Z,1008.95
2017-10-29T09:19:11.695Z,1008.93
2017-10-29T09:20:20.727Z,1008.9
2017-10-29T09:21:30.260Z,1008.85
2017-10-29T09:22:39.497Z,1008.87
2017-10-29T09:23:48.562Z,1008.82
2017-10-29T09:24:57.552Z,1008.89
2017-10-29T09:26:07.535Z,1008.82
2017-10-29T09:27:16.585Z,1008.87
2017-10-29T09:28:26.242Z,1008.83
2017-10-29T09:29:34.898Z,1008.88
2017-10-29T09:30:43.880Z,1008.94
2017-10-29T09:31:53.514Z,1008.94
2017-10-29T09:33:02.508Z,1009.02
2017-10-29T09:34:11.229Z,1008.95
2017-10-29T09:35:20.627Z,1008.93
2017-10-29T09:36:30.305Z,1009.04
2017-10-29T09:37:39.377Z,1009.04
2017-10-29T09:38:48.033Z,1009.13
2017-10-29T09:39:57.438Z,1009.08
2017-10-29T09:41:07.535Z,1009.12
2017-10-29T09:42:17.324Z,1009.13
2017-10-29T09:43:27.369Z,1009.12
2017-10-29T09:44:36.434Z,1009.18
2017-10-29T09:45:45.525Z,1009.21
2017-10-29T09:46:55.182Z,1009.19
2017-10-29T09:48:03.957Z,1009.21
2017-10-29T09:49:12.965Z,1009.36
2017-10-29T09:50:21.616Z,1009.37
2017-10-29T09:51:30.962Z,1009.22
2017-10-29T09:52:39.969Z,1009.37
2017-10-29T09:53:48.962Z,1009.3
2017-10-29T09:54:57.649Z,1009.41
2017-10-29T09:56:07.741Z,1009.32
2017-10-29T09:57:16.476Z,1009.49
2017-10-29T09:58:26.928Z,1009.29
2017-10-29T09:59:37.229Z,1009.3
2017-10-29T10:00:45.950Z,1009.37
2017-10-29T10:01:55.276Z,1009.41
2017-10-29T10:03:04.449Z,1009.48
2017-10-29T10:04:13.787Z,1009.45
2017-10-29T10:05:22.801Z,1009.53
2017-10-29T10:06:32.107Z,1009.6
2017-10-29T10:07:41.084Z,1009.64
2017-10-29T10:08:49.754Z,1009.57
2017-10-29T10:09:58.741Z,1009.51
2017-10-29T10:11:07.742Z,1009.57
2017-10-29T10:12:16.425Z,1009.62
2017-10-29T10:13:25.510Z,1009.64
2017-10-29T10:14:34.882Z,1009.61
2017-10-29T10:15:43.555Z,1009.6
2017-10-29T10:16:52.886Z,1009.58
2017-10-29T10:18:01.881Z,1009.58
2017-10-29T10:19:10.907Z,1009.6
2017-10-29T10:20:19.895Z,1009.51
2017-10-29T10:21:29.239Z,1009.57
2017-10-29T10:22:37.933Z,1009.61
2017-10-29T10:23:46.589Z,1009.72
2017-10-29T10:24:55.591Z,1009.62
2017-10-29T10:26:04.586Z,1009.67
2017-10-29T10:27:13.894Z,1009.65
2017-10-29T10:28:23.540Z,1009.67
2017-10-29T10:29:32.216Z,1009.64
2017-10-29T10:30:41.557Z,1009.64
2017-10-29T10:31:50.240Z,1009.72
2017-10-29T10:33:00.237Z,1009.89
2017-10-29T10:34:09.276Z,1009.77
2017-10-29T10:35:19.034Z,1009.81
2017-10-29T10:36:28.361Z,1009.77
2017-10-29T10:37:37.893Z,1009.85
2017-10-29T10:38:46.886Z,1009.81
2017-10-29T10:39:55.862Z,1009.75
2017-10-29T10:41:05.583Z,1009.79
2017-10-29T10:42:14.959Z,1009.86
2017-10-29T10:43:24.053Z,1009.78
2017-10-29T10:44:33.104Z,1009.84
2017-10-29T10:45:42.139Z,1009.89
2017-10-29T10:46:50.864Z,1009.87
2017-10-29T10:47:59.852Z,1009.88
2017-10-29T10:49:08.892Z,1009.85
2017-10-29T10:50:17.557Z,1009.79
2017-10-29T10:51:27.200Z,1009.85
2017-10-29T10:52:36.238Z,1009.79
2017-10-29T10:53:45.563Z,1009.99
2017-10-29T10:54:54.877Z,1009.94
2017-10-29T10:56:03.893Z,1009.99
2017-10-29T10:57:13.202Z,1010.01
2017-10-29T10:58:22.515Z,1009.95
2017-10-29T10:59:31.832Z,1010
2017-10-29T11:00:40.829Z,1009.99
2017-10-29T11:01:50.183Z,1009.95
2017-10-29T11:02:58.872Z,1009.96
2017-10-29T11:04:08.201Z,1010.13
2017-10-29T11:05:16.858Z,1010.17
2017-10-29T11:06:26.172Z,1010.22
2017-10-29T11:07:35.496Z,1010.17
2017-10-29T11:08:44.478Z,1010.21
2017-10-29T11:09:53.151Z,1010.16
2017-10-29T11:11:02.194Z,1010.18
2017-10-29T11:12:11.732Z,1010.16
2017-10-29T11:13:20.744Z,1010.48
2017-10-29T11:14:30.136Z,1010.49
2017-10-29T11:15:38.788Z,1010.49
2017-10-29T11:16:48.108Z,1010.45
2017-10-29T11:17:57.200Z,1010.44
2017-10-29T11:19:06.289Z,1010.42
2017-10-29T11:20:15.083Z,1010.39
2017-10-29T11:21:23.830Z,1010.4
2017-10-29T11:22:32.507Z,1010.33
2017-10-29T11:23:41.162Z,1010.37
2017-10-29T11:24:49.824Z,1010.28
2017-10-29T11:25:58.818Z,1010.34
2017-10-29T11:27:07.473Z,1010.31
2017-10-29T11:28:16.939Z,1010.26
2017-10-29T11:29:25.618Z,1010.3
2017-10-29T11:30:35.383Z,1010.18
2017-10-29T11:31:44.476Z,1010.21
2017-10-29T11:32:53.491Z,1010.25
2017-10-29T11:34:03.226Z,1010.19
2017-10-29T11:35:13.378Z,1010.26
2017-10-29T11:36:22.494Z,1010.3
2017-10-29T11:37:31.201Z,1010.25
2017-10-29T11:38:41.281Z,1010.4
2017-10-29T11:39:50.334Z,1010.36
2017-10-29T11:40:59.100Z,1010.36
2017-10-29T11:42:09.214Z,1010.32
2017-10-29T11:43:17.950Z,1010.31
2017-10-29T11:44:27.309Z,1010.33
2017-10-29T11:45:36.336Z,1010.39
2017-10-29T11:46:46.010Z,1010.38
2017-10-29T11:47:55.521Z,1010.53
2017-10-29T11:49:04.670Z,1010.48
2017-10-29T11:50:14.321Z,1010.49
2017-10-29T11:51:23.306Z,1010.52
2017-10-29T11:52:32.303Z,1010.47
2017-10-29T11:53:41.954Z,1010.55
2017-10-29T11:54:51.095Z,1010.49
2017-10-29T11:55:59.854Z,1010.46
2017-10-29T11:57:08.893Z,1010.5
2017-10-29T11:58:18.364Z,1010.58
2017-10-29T11:59:27.373Z,1010.6
2017-10-29T12:00:36.731Z,1010.62
2017-10-29T12:01:45.511Z,1010.63
2017-10-29T12:02:54.819Z,1010.69
2017-10-29T12:04:03.505Z,1010.72
2017-10-29T12:05:13.138Z,1010.7
2017-10-29T12:06:22.132Z,1010.65
2017-10-29T12:07:30.792Z,1010.67
2017-10-29T12:08:39.780Z,1010.62
2017-10-29T12:09:48.756Z,1010.61
2017-10-29T12:10:58.089Z,1010.64
2017-10-29T12:12:07.654Z,1010.61
2017-10-29T12:13:17.429Z,1010.64
2017-10-29T12:14:26.441Z,1010.6
2017-10-29T12:15:36.097Z,1010.63
2017-10-29T12:16:45.361Z,1010.67
2017-10-29T12:17:54.968Z,1010.62
2017-10-29T12:19:03.862Z,1010.72
2017-10-29T12:20:12.599Z,1010.71
2017-10-29T12:21:21.283Z,1010.7
2017-10-29T12:22:30.598Z,1010.76
2017-10-29T12:23:39.993Z,1010.79
2017-10-29T12:24:48.662Z,1010.69
2017-10-29T12:25:58.023Z,1010.78
2017-10-29T12:27:07.336Z,1010.75
2017-10-29T12:28:16.341Z,1010.75
2017-10-29T12:29:25.339Z,1010.75
2017-10-29T12:30:34.374Z,1010.78
2017-10-29T12:31:44.052Z,1010.78
2017-10-29T12:32:52.695Z,1010.77
2017-10-29T12:34:01.338Z,1010.75
2017-10-29T12:35:10.307Z,1010.82
2017-10-29T12:36:19.301Z,1010.85
2017-10-29T12:37:27.973Z,1010.91
2017-10-29T12:38:37.665Z,1010.95
2017-10-29T12:39:46.646Z,1010.96
2017-10-29T12:40:55.656Z,1010.94
2017-10-29T12:42:04.994Z,1010.99
2017-10-29T12:43:14.074Z,1011.01
2017-10-29T12:44:23.089Z,1011.05
2017-10-29T12:45:32.069Z,1011.04
2017-10-29T12:46:41.634Z,1011.03
2017-10-29T12:47:51.038Z,1011.09
2017-10-29T12:48:59.712Z,1011.17
2017-10-29T12:50:09.343Z,1011.18
2017-10-29T12:51:18.646Z,1011.27
2017-10-29T12:52:27.441Z,1011.32
2017-10-29T12:53:37.069Z,1011.35
2017-10-29T12:54:45.740Z,1011.37
2017-10-29T12:55:54.380Z,1011.41
2017-10-29T12:57:03.369Z,1011.46
2017-10-29T12:58:12.030Z,1011.46
2017-10-29T12:59:21.342Z,1011.5
2017-10-29T13:00:29.979Z,1011.56
2017-10-29T13:01:38.648Z,1011.65
2017-10-29T13:02:47.620Z,1011.75
2017-10-29T13:03:56.371Z,1011.87
2017-10-29T13:05:05.382Z,1011.89
2017-10-29T13:06:14.680Z,1011.61
2017-10-29T13:07:23.673Z,1011.56
2017-10-29T13:08:33.075Z,1011.6
2017-10-29T13:09:42.402Z,1011.59
2017-10-29T13:10:51.722Z,1011.54
2017-10-29T13:12:01.032Z,1011.53
2017-10-29T13:13:10.354Z,1011.48
2017-10-29T13:14:19.027Z,1011.61
2017-10-29T13:15:27.773Z,1011.62
2017-10-29T13:16:36.757Z,1011.61
2017-10-29T13:17:45.751Z,1011.6
2017-10-29T13:18:55.080Z,1011.61
2017-10-29T13:20:03.747Z,1011.6
2017-10-29T13:21:13.056Z,1011.58
2017-10-29T13:22:22.769Z,1011.59
2017-10-29T13:23:32.118Z,1011.64
2017-10-29T13:24:41.422Z,1011.61
2017-10-29T13:25:50.743Z,1011.7
2017-10-29T13:26:59.716Z,1011.75
2017-10-29T13:28:09.034Z,1011.67
2017-10-29T13:29:17.695Z,1011.71
2017-10-29T13:30:27.332Z,1011.75
2017-10-29T13:31:36.348Z,1011.75
2017-10-29T13:32:45.321Z,1011.76
2017-10-29T13:33:54.302Z,1011.7
2017-10-29T13:35:03.629Z,1011.74
2017-10-29T13:36:12.963Z,1011.7
2017-10-29T13:37:22.001Z,1011.73
2017-10-29T13:38:32.075Z,1011.73
2017-10-29T13:39:41.332Z,1011.81
2017-10-29T13:40:50.592Z,1011.75
2017-10-29T13:41:59.259Z,1011.77
2017-10-29T13:43:09.269Z,1011.78
2017-10-29T13:44:18.296Z,1011.78
2017-10-29T13:45:27.599Z,1011.84
2017-10-29T13:46:37.642Z,1011.87
2017-10-29T13:47:46.297Z,1011.74
2017-10-29T13:48:55.272Z,1011.8
2017-10-29T13:50:03.932Z,1011.86
2017-10-29T13:51:13.246Z,1011.91
2017-10-29T13:52:22.257Z,1011.81
2017-10-29T13:53:31.327Z,1011.91
2017-10-29T13:54:39.984Z,1012.04
2017-10-29T13:55:48.643Z,1011.88
2017-10-29T13:56:57.661Z,1011.87
2017-10-29T13:58:07.480Z,1011.92
2017-10-29T13:59:16.822Z,1011.85
2017-10-29T14:00:26.132Z,1011.87